sensor_id;sensor_type;location;lat;lon;timestamp;pressure;altitude;pressure_sealevel;temperature;humidity
4576;BME280;2300;51.874;8.430;2023-04-07T00:01:37;100681.50;;;7.58;88.65
4576;BME280;2300;51.874;8.430;2023-04-07T00:04:04;100679.00;;;7.50;89.25
4576;BME280;2300;51.874;8.430;2023-04-07T00:06:32;100681.75;;;7.56;88.61
4576;BME280;2300;51.874;8.430;2023-04-07T00:08:59;100663.66;;;7.42;88.96
4576;BME280;2300;51.874;8.430;2023-04-07T00:11:27;100672.94;;;7.41;89.04
4576;BME280;2300;51.874;8.430;2023-04-07T00:13:53;100668.72;;;7.32;88.78
4576;BME280;2300;51.874;8.430;2023-04-07T00:16:20;100670.00;;;7.36;88.83
4576;BME280;2300;51.874;8.430;2023-04-07T00:18:47;100675.03;;;7.26;88.50
4576;BME280;2300;51.874;8.430;2023-04-07T00:21:13;100675.25;;;7.18;88.73
4576;BME280;2300;51.874;8.430;2023-04-07T00:23:40;100662.84;;;7.22;88.82
4576;BME280;2300;51.874;8.430;2023-04-07T00:26:07;100667.69;;;7.26;88.80
4576;BME280;2300;51.874;8.430;2023-04-07T00:28:34;100667.28;;;7.23;89.06
4576;BME280;2300;51.874;8.430;2023-04-07T00:31:02;100656.97;;;7.18;88.97
4576;BME280;2300;51.874;8.430;2023-04-07T00:33:29;100664.13;;;7.19;89.09
4576;BME280;2300;51.874;8.430;2023-04-07T00:35:56;100653.59;;;7.23;88.89
4576;BME280;2300;51.874;8.430;2023-04-07T00:38:22;100651.94;;;7.15;89.09
4576;BME280;2300;51.874;8.430;2023-04-07T00:40:49;100647.31;;;7.16;89.02
4576;BME280;2300;51.874;8.430;2023-04-07T00:43:15;100653.19;;;7.19;88.95
4576;BME280;2300;51.874;8.430;2023-04-07T00:45:45;100651.72;;;7.10;89.11
4576;BME280;2300;51.874;8.430;2023-04-07T00:48:11;100656.56;;;7.15;88.89
4576;BME280;2300;51.874;8.430;2023-04-07T00:50:38;100658.47;;;7.14;89.10
4576;BME280;2300;51.874;8.430;2023-04-07T00:53:04;100657.19;;;7.17;89.11
4576;BME280;2300;51.874;8.430;2023-04-07T00:55:31;100650.91;;;7.10;89.62
4576;BME280;2300;51.874;8.430;2023-04-07T00:57:58;100660.34;;;7.07;89.41
4576;BME280;2300;51.874;8.430;2023-04-07T01:00:25;100648.16;;;7.10;89.38
4576;BME280;2300;51.874;8.430;2023-04-07T01:02:57;100641.88;;;7.09;89.42
4576;BME280;2300;51.874;8.430;2023-04-07T01:05:29;100647.72;;;7.06;89.71
4576;BME280;2300;51.874;8.430;2023-04-07T01:08:07;100634.50;;;6.96;90.43
4576;BME280;2300;51.874;8.430;2023-04-07T01:10:41;100641.03;;;7.02;90.37
4576;BME280;2300;51.874;8.430;2023-04-07T01:13:13;100639.13;;;7.02;90.31
4576;BME280;2300;51.874;8.430;2023-04-07T01:15:49;100639.34;;;6.94;90.37
4576;BME280;2300;51.874;8.430;2023-04-07T01:18:25;100638.06;;;6.90;91.01
4576;BME280;2300;51.874;8.430;2023-04-07T01:20:59;100630.94;;;7.02;90.73
4576;BME280;2300;51.874;8.430;2023-04-07T01:23:37;100625.03;;;7.06;90.86
4576;BME280;2300;51.874;8.430;2023-04-07T01:26:15;100612.44;;;6.85;90.70
4576;BME280;2300;51.874;8.430;2023-04-07T01:28:56;100625.06;;;6.99;90.79
4576;BME280;2300;51.874;8.430;2023-04-07T01:31:30;100620.88;;;7.03;90.69
4576;BME280;2300;51.874;8.430;2023-04-07T01:33:59;100624.84;;;7.07;90.47
4576;BME280;2300;51.874;8.430;2023-04-07T01:36:28;100624.44;;;7.03;90.84
4576;BME280;2300;51.874;8.430;2023-04-07T01:38:58;100622.09;;;7.00;90.70
4576;BME280;2300;51.874;8.430;2023-04-07T01:41:25;100627.56;;;7.07;90.79
4576;BME280;2300;51.874;8.430;2023-04-07T01:43:52;100603.00;;;6.87;90.72
4576;BME280;2300;51.874;8.430;2023-04-07T01:46:20;100626.13;;;7.05;90.53
4576;BME280;2300;51.874;8.430;2023-04-07T01:48:48;100622.75;;;7.02;90.73
4576;BME280;2300;51.874;8.430;2023-04-07T01:51:16;100620.22;;;7.01;90.48
4576;BME280;2300;51.874;8.430;2023-04-07T01:53:44;100613.31;;;6.98;90.60
4576;BME280;2300;51.874;8.430;2023-04-07T01:56:11;100612.25;;;6.86;91.31
4576;BME280;2300;51.874;8.430;2023-04-07T01:58:37;100624.63;;;6.95;91.00
4576;BME280;2300;51.874;8.430;2023-04-07T02:01:04;100609.09;;;6.96;91.00
4576;BME280;2300;51.874;8.430;2023-04-07T02:03:35;100618.13;;;6.96;90.80
4576;BME280;2300;51.874;8.430;2023-04-07T02:06:08;100620.44;;;6.99;91.41
4576;BME280;2300;51.874;8.430;2023-04-07T02:08:41;100618.75;;;7.05;90.75
4576;BME280;2300;51.874;8.430;2023-04-07T02:11:12;100616.44;;;6.95;91.16
4576;BME280;2300;51.874;8.430;2023-04-07T02:13:41;100618.34;;;7.01;91.64
4576;BME280;2300;51.874;8.430;2023-04-07T02:16:08;100615.19;;;6.91;91.84
4576;BME280;2300;51.874;8.430;2023-04-07T02:18:36;100617.06;;;6.91;91.73
4576;BME280;2300;51.874;8.430;2023-04-07T02:21:03;100604.28;;;6.91;92.28
4576;BME280;2300;51.874;8.430;2023-04-07T02:23:33;100612.06;;;6.88;92.61
4576;BME280;2300;51.874;8.430;2023-04-07T02:26:00;100601.97;;;6.82;92.81
4576;BME280;2300;51.874;8.430;2023-04-07T02:28:26;100610.38;;;6.87;93.54
4576;BME280;2300;51.874;8.430;2023-04-07T02:30:53;100598.41;;;6.81;93.36
4576;BME280;2300;51.874;8.430;2023-04-07T02:33:20;100605.75;;;6.87;94.02
4576;BME280;2300;51.874;8.430;2023-04-07T02:35:46;100607.38;;;6.75;93.89
4576;BME280;2300;51.874;8.430;2023-04-07T02:38:13;100608.66;;;6.66;94.73
4576;BME280;2300;51.874;8.430;2023-04-07T02:40:41;100611.59;;;6.71;95.57
4576;BME280;2300;51.874;8.430;2023-04-07T02:43:07;100609.50;;;6.73;95.51
4576;BME280;2300;51.874;8.430;2023-04-07T02:45:33;100613.06;;;6.67;95.83
4576;BME280;2300;51.874;8.430;2023-04-07T02:48:00;100614.97;;;6.73;96.29
4576;BME280;2300;51.874;8.430;2023-04-07T02:50:26;100608.84;;;6.71;95.93
4576;BME280;2300;51.874;8.430;2023-04-07T02:52:53;100627.13;;;6.71;96.12
4576;BME280;2300;51.874;8.430;2023-04-07T02:55:19;100617.03;;;6.71;96.28
4576;BME280;2300;51.874;8.430;2023-04-07T02:57:47;100609.06;;;6.63;96.61
4576;BME280;2300;51.874;8.430;2023-04-07T03:00:14;100612.84;;;6.62;97.34
4576;BME280;2300;51.874;8.430;2023-04-07T03:02:41;100613.88;;;6.61;97.67
4576;BME280;2300;51.874;8.430;2023-04-07T03:05:08;100614.31;;;6.58;97.76
4576;BME280;2300;51.874;8.430;2023-04-07T03:07:34;100602.75;;;6.56;98.50
4576;BME280;2300;51.874;8.430;2023-04-07T03:10:00;100612.00;;;6.61;98.49
4576;BME280;2300;51.874;8.430;2023-04-07T03:12:27;100606.53;;;6.55;99.16
4576;BME280;2300;51.874;8.430;2023-04-07T03:14:55;100610.31;;;6.54;98.86
4576;BME280;2300;51.874;8.430;2023-04-07T03:17:21;100609.06;;;6.56;98.58
4576;BME280;2300;51.874;8.430;2023-04-07T03:19:48;100607.38;;;6.62;99.08
4576;BME280;2300;51.874;8.430;2023-04-07T03:22:16;100606.53;;;6.61;98.77
4576;BME280;2300;51.874;8.430;2023-04-07T03:24:42;100602.75;;;6.56;98.83
4576;BME280;2300;51.874;8.430;2023-04-07T03:27:08;100599.81;;;6.51;99.43
4576;BME280;2300;51.874;8.430;2023-04-07T03:29:35;100603.19;;;6.53;99.32
4576;BME280;2300;51.874;8.430;2023-04-07T03:32:03;100608.63;;;6.59;99.41
4576;BME280;2300;51.874;8.430;2023-04-07T03:34:29;100606.13;;;6.58;99.39
4576;BME280;2300;51.874;8.430;2023-04-07T03:36:56;100600.03;;;6.56;99.84
4576;BME280;2300;51.874;8.430;2023-04-07T03:39:22;100602.97;;;6.61;99.82
4576;BME280;2300;51.874;8.430;2023-04-07T03:41:49;100604.84;;;6.54;99.86
4576;BME280;2300;51.874;8.430;2023-04-07T03:44:16;100602.34;;;6.52;100.00
4576;BME280;2300;51.874;8.430;2023-04-07T03:46:42;100601.06;;;6.55;99.61
4576;BME280;2300;51.874;8.430;2023-04-07T03:49:10;100604.00;;;6.47;99.80
4576;BME280;2300;51.874;8.430;2023-04-07T03:51:37;100603.19;;;6.59;100.00
4576;BME280;2300;51.874;8.430;2023-04-07T03:54:04;100573.38;;;6.32;99.60
4576;BME280;2300;51.874;8.430;2023-04-07T03:56:30;100609.69;;;6.52;99.98
4576;BME280;2300;51.874;8.430;2023-04-07T03:58:57;100601.06;;;6.55;100.00
4576;BME280;2300;51.874;8.430;2023-04-07T04:01:23;100609.66;;;6.58;100.00
4576;BME280;2300;51.874;8.430;2023-04-07T04:03:50;100609.03;;;6.50;99.78
4576;BME280;2300;51.874;8.430;2023-04-07T04:06:18;100613.03;;;6.54;100.00
4576;BME280;2300;51.874;8.430;2023-04-07T04:08:44;100613.84;;;6.48;100.00
4576;BME280;2300;51.874;8.430;2023-04-07T04:11:11;100613.25;;;6.52;100.00
4576;BME280;2300;51.874;8.430;2023-04-07T04:13:37;100617.44;;;6.55;100.00
4576;BME280;2300;51.874;8.430;2023-04-07T04:16:04;100611.78;;;6.50;100.00
4576;BME280;2300;51.874;8.430;2023-04-07T04:18:31;100614.94;;;6.47;100.00
4576;BME280;2300;51.874;8.430;2023-04-07T04:20:58;100601.47;;;6.39;100.00
4576;BME280;2300;51.874;8.430;2023-04-07T04:23:26;100624.59;;;6.56;100.00
4576;BME280;2300;51.874;8.430;2023-04-07T04:25:52;100621.84;;;6.49;100.00
4576;BME280;2300;51.874;8.430;2023-04-07T04:28:19;100617.66;;;6.47;100.00
4576;BME280;2300;51.874;8.430;2023-04-07T04:30:45;100625.00;;;6.53;100.00
4576;BME280;2300;51.874;8.430;2023-04-07T04:33:12;100623.72;;;6.36;100.00
4576;BME280;2300;51.874;8.430;2023-04-07T04:35:39;100619.53;;;6.40;100.00
4576;BME280;2300;51.874;8.430;2023-04-07T04:38:05;100627.91;;;6.45;100.00
4576;BME280;2300;51.874;8.430;2023-04-07T04:40:33;100622.03;;;6.48;100.00
4576;BME280;2300;51.874;8.430;2023-04-07T04:42:59;100628.31;;;6.35;100.00
4576;BME280;2300;51.874;8.430;2023-04-07T04:45:26;100628.34;;;6.42;100.00
4576;BME280;2300;51.874;8.430;2023-04-07T04:47:52;100629.16;;;6.36;100.00
4576;BME280;2300;51.874;8.430;2023-04-07T04:50:18;100634.84;;;6.41;100.00
4576;BME280;2300;51.874;8.430;2023-04-07T04:52:45;100635.03;;;6.39;100.00
4576;BME280;2300;51.874;8.430;2023-04-07T04:55:12;100631.91;;;6.36;100.00
4576;BME280;2300;51.874;8.430;2023-04-07T04:57:39;100636.75;;;6.47;100.00
4576;BME280;2300;51.874;8.430;2023-04-07T05:00:07;100629.63;;;6.46;100.00
4576;BME280;2300;51.874;8.430;2023-04-07T05:02:34;100636.53;;;6.55;100.00
4576;BME280;2300;51.874;8.430;2023-04-07T05:05:00;100642.22;;;6.47;100.00
4576;BME280;2300;51.874;8.430;2023-04-07T05:07:27;100642.00;;;6.55;100.00
4576;BME280;2300;51.874;8.430;2023-04-07T05:09:53;100637.78;;;6.46;100.00
4576;BME280;2300;51.874;8.430;2023-04-07T05:12:20;100632.13;;;6.41;100.00
4576;BME280;2300;51.874;8.430;2023-04-07T05:14:48;100647.25;;;6.50;100.00
4576;BME280;2300;51.874;8.430;2023-04-07T05:17:14;100647.88;;;6.45;100.00
4576;BME280;2300;51.874;8.430;2023-04-07T05:19:41;100646.19;;;6.44;100.00
4576;BME280;2300;51.874;8.430;2023-04-07T05:22:08;100645.75;;;6.41;100.00
4576;BME280;2300;51.874;8.430;2023-04-07T05:24:34;100641.56;;;6.45;100.00
4576;BME280;2300;51.874;8.430;2023-04-07T05:27:01;100649.56;;;6.46;100.00
4576;BME280;2300;51.874;8.430;2023-04-07T05:29:27;100644.72;;;6.55;100.00
4576;BME280;2300;51.874;8.430;2023-04-07T05:31:55;100652.28;;;6.59;100.00
4576;BME280;2300;51.874;8.430;2023-04-07T05:34:21;100650.00;;;6.56;100.00
4576;BME280;2300;51.874;8.430;2023-04-07T05:36:48;100648.94;;;6.57;100.00
4576;BME280;2300;51.874;8.430;2023-04-07T05:39:15;100651.88;;;6.69;100.00
4576;BME280;2300;51.874;8.430;2023-04-07T05:41:41;100651.06;;;6.62;100.00
4576;BME280;2300;51.874;8.430;2023-04-07T05:44:08;100649.38;;;6.74;100.00
4576;BME280;2300;51.874;8.430;2023-04-07T05:46:34;100653.16;;;6.73;100.00
4576;BME280;2300;51.874;8.430;2023-04-07T05:49:02;100654.00;;;6.67;100.00
4576;BME280;2300;51.874;8.430;2023-04-07T05:51:29;100653.16;;;6.67;100.00
4576;BME280;2300;51.874;8.430;2023-04-07T05:53:55;100656.09;;;6.78;100.00
4576;BME280;2300;51.874;8.430;2023-04-07T05:56:22;100657.16;;;6.77;100.00
4576;BME280;2300;51.874;8.430;2023-04-07T05:58:48;100664.53;;;6.83;100.00
4576;BME280;2300;51.874;8.430;2023-04-07T06:01:14;100665.97;;;6.73;99.88
4576;BME280;2300;51.874;8.430;2023-04-07T06:03:41;100664.06;;;6.67;100.00
4576;BME280;2300;51.874;8.430;2023-04-07T06:06:09;100670.16;;;6.75;100.00
4576;BME280;2300;51.874;8.430;2023-04-07T06:08:35;100672.94;;;6.82;100.00
4576;BME280;2300;51.874;8.430;2023-04-07T06:11:02;100690.53;;;6.79;100.00
4576;BME280;2300;51.874;8.430;2023-04-07T06:13:28;100677.72;;;6.73;100.00
4576;BME280;2300;51.874;8.430;2023-04-07T06:15:55;100683.41;;;6.78;100.00
4576;BME280;2300;51.874;8.430;2023-04-07T06:18:21;100680.50;;;6.86;100.00
4576;BME280;2300;51.874;8.430;2023-04-07T06:20:48;100681.97;;;6.82;100.00
4576;BME280;2300;51.874;8.430;2023-04-07T06:23:16;100680.84;;;6.70;100.00
4576;BME280;2300;51.874;8.430;2023-04-07T06:25:42;100689.06;;;6.77;100.00
4576;BME280;2300;51.874;8.430;2023-04-07T06:28:09;100697.91;;;6.85;100.00
4576;BME280;2300;51.874;8.430;2023-04-07T06:30:35;100698.56;;;6.87;100.00
4576;BME280;2300;51.874;8.430;2023-04-07T06:33:02;100694.31;;;6.78;100.00
4576;BME280;2300;51.874;8.430;2023-04-07T06:35:28;100669.50;;;6.60;100.00
4576;BME280;2300;51.874;8.430;2023-04-07T06:37:55;100690.59;;;6.99;100.00
4576;BME280;2300;51.874;8.430;2023-04-07T06:40:23;100690.59;;;6.92;100.00
4576;BME280;2300;51.874;8.430;2023-04-07T06:42:50;100692.47;;;6.92;99.74
4576;BME280;2300;51.874;8.430;2023-04-07T06:45:18;100705.72;;;6.88;100.00
4576;BME280;2300;51.874;8.430;2023-04-07T06:47:45;100698.56;;;6.94;100.00
4576;BME280;2300;51.874;8.430;2023-04-07T06:50:12;100704.03;;;7.00;99.79
4576;BME280;2300;51.874;8.430;2023-04-07T06:52:38;100708.88;;;7.12;100.00
4576;BME280;2300;51.874;8.430;2023-04-07T06:55:06;100706.56;;;7.09;99.55
4576;BME280;2300;51.874;8.430;2023-04-07T06:57:34;100714.13;;;7.20;99.74
4576;BME280;2300;51.874;8.430;2023-04-07T07:00:01;100716.66;;;7.34;99.62
4576;BME280;2300;51.874;8.430;2023-04-07T07:02:28;100723.38;;;7.45;99.45
4576;BME280;2300;51.874;8.430;2023-04-07T07:04:54;100725.06;;;7.46;98.61
4576;BME280;2300;51.874;8.430;2023-04-07T07:07:21;100728.41;;;7.55;98.75
4576;BME280;2300;51.874;8.430;2023-04-07T07:09:49;100724.78;;;7.67;98.96
4576;BME280;2300;51.874;8.430;2023-04-07T07:12:16;100733.44;;;7.64;97.83
4576;BME280;2300;51.874;8.430;2023-04-07T07:14:44;100725.84;;;7.73;98.26
4576;BME280;2300;51.874;8.430;2023-04-07T07:17:10;100728.78;;;7.84;96.65
4576;BME280;2300;51.874;8.430;2023-04-07T07:19:37;100717.81;;;7.91;96.61
4576;BME280;2300;51.874;8.430;2023-04-07T07:22:03;100729.16;;;8.01;96.92
4576;BME280;2300;51.874;8.430;2023-04-07T07:24:30;100730.38;;;8.18;95.96
4576;BME280;2300;51.874;8.430;2023-04-07T07:26:58;100728.44;;;8.19;94.99
4576;BME280;2300;51.874;8.430;2023-04-07T07:29:24;100740.00;;;8.34;94.89
4576;BME280;2300;51.874;8.430;2023-04-07T07:31:52;100733.50;;;8.28;93.20
4576;BME280;2300;51.874;8.430;2023-04-07T07:34:19;100740.81;;;8.35;93.98
4576;BME280;2300;51.874;8.430;2023-04-07T07:36:45;100738.50;;;8.38;92.78
4576;BME280;2300;51.874;8.430;2023-04-07T07:39:11;100742.50;;;8.36;92.83
4576;BME280;2300;51.874;8.430;2023-04-07T07:41:38;100750.22;;;8.52;92.48
4576;BME280;2300;51.874;8.430;2023-04-07T07:44:05;100757.22;;;8.41;91.50
4576;BME280;2300;51.874;8.430;2023-04-07T07:46:32;100753.63;;;8.41;89.94
4576;BME280;2300;51.874;8.430;2023-04-07T07:48:59;100744.84;;;8.25;90.93
4576;BME280;2300;51.874;8.430;2023-04-07T07:51:26;100746.53;;;8.26;90.75
4576;BME280;2300;51.874;8.430;2023-04-07T07:53:53;100758.81;;;8.55;90.15
4576;BME280;2300;51.874;8.430;2023-04-07T07:56:19;100750.78;;;8.73;89.91
4576;BME280;2300;51.874;8.430;2023-04-07T07:58:46;100756.63;;;8.84;88.25
4576;BME280;2300;51.874;8.430;2023-04-07T08:01:13;100750.63;;;9.00;89.57
4576;BME280;2300;51.874;8.430;2023-04-07T08:03:39;100759.00;;;9.05;87.16
4576;BME280;2300;51.874;8.430;2023-04-07T08:06:07;100766.53;;;9.16;85.94
4576;BME280;2300;51.874;8.430;2023-04-07T08:08:34;100769.16;;;8.98;85.22
4576;BME280;2300;51.874;8.430;2023-04-07T08:11:01;100764.84;;;9.15;86.62
4576;BME280;2300;51.874;8.430;2023-04-07T08:13:27;100767.91;;;9.00;86.17
4576;BME280;2300;51.874;8.430;2023-04-07T08:15:54;100764.84;;;9.15;85.92
4576;BME280;2300;51.874;8.430;2023-04-07T08:18:21;100768.41;;;9.47;85.13
4576;BME280;2300;51.874;8.430;2023-04-07T08:20:47;100774.44;;;9.31;85.01
4576;BME280;2300;51.874;8.430;2023-04-07T08:23:17;100777.88;;;9.69;86.22
4576;BME280;2300;51.874;8.430;2023-04-07T08:25:43;100779.38;;;9.90;84.03
4576;BME280;2300;51.874;8.430;2023-04-07T08:28:09;100777.00;;;9.75;83.48
4576;BME280;2300;51.874;8.430;2023-04-07T08:30:36;100780.47;;;9.64;82.81
4576;BME280;2300;51.874;8.430;2023-04-07T08:33:04;100785.16;;;9.82;83.50
4576;BME280;2300;51.874;8.430;2023-04-07T08:35:31;100785.00;;;9.77;81.25
4576;BME280;2300;51.874;8.430;2023-04-07T08:37:58;100788.44;;;9.72;83.13
4576;BME280;2300;51.874;8.430;2023-04-07T08:40:25;100786.91;;;9.76;82.97
4576;BME280;2300;51.874;8.430;2023-04-07T08:42:52;100793.84;;;9.79;82.60
4576;BME280;2300;51.874;8.430;2023-04-07T08:45:19;100789.69;;;9.70;83.06
4576;BME280;2300;51.874;8.430;2023-04-07T08:47:49;100794.19;;;9.64;82.78
4576;BME280;2300;51.874;8.430;2023-04-07T08:50:18;100796.38;;;9.55;82.19
4576;BME280;2300;51.874;8.430;2023-04-07T08:52:51;100795.47;;;9.62;81.47
4576;BME280;2300;51.874;8.430;2023-04-07T08:55:19;100795.63;;;9.67;80.95
4576;BME280;2300;51.874;8.430;2023-04-07T08:57:47;100779.41;;;9.65;81.45
4576;BME280;2300;51.874;8.430;2023-04-07T09:00:15;100805.16;;;9.89;81.62
4576;BME280;2300;51.874;8.430;2023-04-07T09:02:42;100809.63;;;9.83;80.36
4576;BME280;2300;51.874;8.430;2023-04-07T09:05:10;100814.16;;;9.96;81.99
4576;BME280;2300;51.874;8.430;2023-04-07T09:07:39;100812.19;;;10.21;80.03
4576;BME280;2300;51.874;8.430;2023-04-07T09:10:07;100810.81;;;10.12;79.89
4576;BME280;2300;51.874;8.430;2023-04-07T09:12:34;100815.78;;;10.04;78.43
4576;BME280;2300;51.874;8.430;2023-04-07T09:15:02;100814.38;;;9.94;78.92
4576;BME280;2300;51.874;8.430;2023-04-07T09:17:29;100814.44;;;9.88;79.42
4576;BME280;2300;51.874;8.430;2023-04-07T09:19:57;100806.91;;;9.83;79.63
4576;BME280;2300;51.874;8.430;2023-04-07T09:22:38;100824.38;;;10.07;79.15
4576;BME280;2300;51.874;8.430;2023-04-07T09:25:11;100825.59;;;10.11;78.78
4576;BME280;2300;51.874;8.430;2023-04-07T09:27:38;100831.41;;;10.46;78.92
4576;BME280;2300;51.874;8.430;2023-04-07T09:30:13;100822.09;;;10.29;77.68
4576;BME280;2300;51.874;8.430;2023-04-07T09:32:40;100828.19;;;10.31;77.14
4576;BME280;2300;51.874;8.430;2023-04-07T09:35:07;100822.56;;;10.26;77.69
4576;BME280;2300;51.874;8.430;2023-04-07T09:37:34;100824.28;;;10.20;77.49
4576;BME280;2300;51.874;8.430;2023-04-07T09:40:01;100823.38;;;10.26;77.75
4576;BME280;2300;51.874;8.430;2023-04-07T09:42:28;100811.72;;;10.06;77.62
4576;BME280;2300;51.874;8.430;2023-04-07T09:44:57;100819.84;;;10.19;77.53
4576;BME280;2300;51.874;8.430;2023-04-07T09:47:28;100826.66;;;10.35;77.30
4576;BME280;2300;51.874;8.430;2023-04-07T09:49:57;100831.00;;;10.24;76.65
4576;BME280;2300;51.874;8.430;2023-04-07T09:52:28;100829.31;;;10.23;77.54
4576;BME280;2300;51.874;8.430;2023-04-07T09:55:12;100834.50;;;10.31;77.41
4576;BME280;2300;51.874;8.430;2023-04-07T09:57:39;100818.13;;;10.43;77.12
4576;BME280;2300;51.874;8.430;2023-04-07T10:00:08;100839.56;;;10.34;75.49
4576;BME280;2300;51.874;8.430;2023-04-07T10:02:37;100839.72;;;10.15;77.20
4576;BME280;2300;51.874;8.430;2023-04-07T10:05:05;100837.03;;;10.08;76.88
4576;BME280;2300;51.874;8.430;2023-04-07T10:07:32;100836.41;;;10.06;76.44
4576;BME280;2300;51.874;8.430;2023-04-07T10:10:00;100832.91;;;9.99;77.27
4576;BME280;2300;51.874;8.430;2023-04-07T10:12:26;100848.41;;;9.87;77.62
4576;BME280;2300;51.874;8.430;2023-04-07T10:14:54;100828.00;;;9.83;77.24
4576;BME280;2300;51.874;8.430;2023-04-07T10:17:22;100827.19;;;9.76;77.59
4576;BME280;2300;51.874;8.430;2023-04-07T10:19:50;100850.44;;;9.98;76.80
4576;BME280;2300;51.874;8.430;2023-04-07T10:22:18;100851.56;;;10.15;77.78
4576;BME280;2300;51.874;8.430;2023-04-07T10:24:50;100845.94;;;10.28;76.61
4576;BME280;2300;51.874;8.430;2023-04-07T10:27:22;100852.22;;;10.35;77.41
4576;BME280;2300;51.874;8.430;2023-04-07T10:29:51;100860.28;;;10.49;77.07
4576;BME280;2300;51.874;8.430;2023-04-07T10:32:18;100849.00;;;10.38;76.87
4576;BME280;2300;51.874;8.430;2023-04-07T10:34:58;100864.34;;;10.64;76.46
4576;BME280;2300;51.874;8.430;2023-04-07T10:37:25;100848.72;;;10.47;75.80
4576;BME280;2300;51.874;8.430;2023-04-07T10:40:27;100861.81;;;10.63;76.13
4576;BME280;2300;51.874;8.430;2023-04-07T10:42:53;100863.88;;;11.04;76.36
4576;BME280;2300;51.874;8.430;2023-04-07T10:45:51;100865.75;;;11.21;75.84
4576;BME280;2300;51.874;8.430;2023-04-07T10:48:19;100863.19;;;10.90;75.24
4576;BME280;2300;51.874;8.430;2023-04-07T10:51:11;100869.81;;;11.01;75.80
4576;BME280;2300;51.874;8.430;2023-04-07T10:54:16;100863.88;;;11.04;74.70
4576;BME280;2300;51.874;8.430;2023-04-07T10:57:13;100832.53;;;10.75;73.16
4576;BME280;2300;51.874;8.430;2023-04-07T10:59:41;100851.22;;;11.14;73.05
4576;BME280;2300;51.874;8.430;2023-04-07T11:02:33;100874.53;;;11.12;72.80
4576;BME280;2300;51.874;8.430;2023-04-07T11:05:00;100854.47;;;11.11;73.38
4576;BME280;2300;51.874;8.430;2023-04-07T11:07:51;100875.44;;;11.24;73.02
4576;BME280;2300;51.874;8.430;2023-04-07T11:10:20;100876.28;;;11.24;73.18
4576;BME280;2300;51.874;8.430;2023-04-07T11:13:00;100874.31;;;11.13;73.64
4576;BME280;2300;51.874;8.430;2023-04-07T11:15:27;100882.94;;;11.47;73.09
4576;BME280;2300;51.874;8.430;2023-04-07T11:18:16;100883.53;;;11.49;71.87
4576;BME280;2300;51.874;8.430;2023-04-07T11:20:49;100879.03;;;11.24;70.99
4576;BME280;2300;51.874;8.430;2023-04-07T11:23:16;100886.81;;;11.27;73.80
4576;BME280;2300;51.874;8.430;2023-04-07T11:25:46;100871.38;;;11.26;73.18
4576;BME280;2300;51.874;8.430;2023-04-07T11:28:13;100878.78;;;11.26;72.17
4576;BME280;2300;51.874;8.430;2023-04-07T11:30:45;100893.63;;;11.55;72.89
4576;BME280;2300;51.874;8.430;2023-04-07T11:33:20;100896.94;;;11.57;71.17
4576;BME280;2300;51.874;8.430;2023-04-07T11:35:53;100894.81;;;11.59;71.52
4576;BME280;2300;51.874;8.430;2023-04-07T11:38:24;100876.84;;;11.75;71.28
4576;BME280;2300;51.874;8.430;2023-04-07T11:40:53;100891.13;;;12.18;71.55
4576;BME280;2300;51.874;8.430;2023-04-07T11:43:21;100902.03;;;12.01;70.71
4576;BME280;2300;51.874;8.430;2023-04-07T11:46:05;100888.69;;;11.75;70.37
4576;BME280;2300;51.874;8.430;2023-04-07T11:48:33;100897.78;;;11.87;70.75
4576;BME280;2300;51.874;8.430;2023-04-07T11:51:01;100892.22;;;12.17;70.45
4576;BME280;2300;51.874;8.430;2023-04-07T11:53:30;100905.38;;;12.15;70.43
4576;BME280;2300;51.874;8.430;2023-04-07T11:56:02;100904.56;;;12.26;70.62
4576;BME280;2300;51.874;8.430;2023-04-07T11:58:30;100906.47;;;12.49;70.93
4576;BME280;2300;51.874;8.430;2023-04-07T12:00:57;100899.16;;;12.20;69.82
4576;BME280;2300;51.874;8.430;2023-04-07T12:03:27;100897.47;;;11.95;69.20
4576;BME280;2300;51.874;8.430;2023-04-07T12:05:54;100877.50;;;12.11;69.73
4576;BME280;2300;51.874;8.430;2023-04-07T12:08:20;100891.75;;;12.20;70.19
4576;BME280;2300;51.874;8.430;2023-04-07T12:10:47;100904.78;;;12.71;69.66
4576;BME280;2300;51.874;8.430;2023-04-07T12:13:15;100900.94;;;12.72;68.03
4576;BME280;2300;51.874;8.430;2023-04-07T12:15:42;100905.84;;;12.70;67.78
4576;BME280;2300;51.874;8.430;2023-04-07T12:18:14;100906.69;;;13.06;68.07
4576;BME280;2300;51.874;8.430;2023-04-07T12:20:41;100907.75;;;13.05;67.14
4576;BME280;2300;51.874;8.430;2023-04-07T12:23:07;100911.13;;;12.60;67.80
4576;BME280;2300;51.874;8.430;2023-04-07T12:25:34;100903.78;;;12.07;67.61
4576;BME280;2300;51.874;8.430;2023-04-07T12:28:01;100905.53;;;12.32;68.94
4576;BME280;2300;51.874;8.430;2023-04-07T12:30:28;100894.50;;;12.20;68.04
4576;BME280;2300;51.874;8.430;2023-04-07T12:32:55;100876.88;;;11.86;68.66
4576;BME280;2300;51.874;8.430;2023-04-07T12:35:22;100911.97;;;12.26;68.68
4576;BME280;2300;51.874;8.430;2023-04-07T12:37:48;100905.59;;;12.13;68.75
4576;BME280;2300;51.874;8.430;2023-04-07T12:40:16;100914.97;;;12.24;67.49
4576;BME280;2300;51.874;8.430;2023-04-07T12:42:42;100914.47;;;12.16;67.63
4576;BME280;2300;51.874;8.430;2023-04-07T12:45:10;100899.97;;;12.08;68.08
4576;BME280;2300;51.874;8.430;2023-04-07T12:47:38;100909.09;;;12.21;68.65
4576;BME280;2300;51.874;8.430;2023-04-07T12:50:05;100929.09;;;12.16;68.45
4576;BME280;2300;51.874;8.430;2023-04-07T12:52:32;100930.50;;;12.19;68.29
4576;BME280;2300;51.874;8.430;2023-04-07T12:54:58;100926.31;;;12.04;68.69
4576;BME280;2300;51.874;8.430;2023-04-07T12:57:25;100927.03;;;12.11;68.71
4576;BME280;2300;51.874;8.430;2023-04-07T12:59:52;100908.84;;;12.10;68.41
4576;BME280;2300;51.874;8.430;2023-04-07T13:02:18;100929.94;;;12.40;68.09
4576;BME280;2300;51.874;8.430;2023-04-07T13:04:46;100900.50;;;12.17;67.61
4576;BME280;2300;51.874;8.430;2023-04-07T13:07:13;100923.81;;;12.26;68.27
4576;BME280;2300;51.874;8.430;2023-04-07T13:09:40;100910.28;;;12.25;68.17
4576;BME280;2300;51.874;8.430;2023-04-07T13:12:08;100932.34;;;12.48;66.97
4576;BME280;2300;51.874;8.430;2023-04-07T13:14:36;100914.22;;;12.75;67.91
4576;BME280;2300;51.874;8.430;2023-04-07T13:17:03;100922.25;;;12.65;67.67
4576;BME280;2300;51.874;8.430;2023-04-07T13:19:29;100914.50;;;12.50;67.77
4576;BME280;2300;51.874;8.430;2023-04-07T13:21:57;100923.34;;;12.76;67.32
4576;BME280;2300;51.874;8.430;2023-04-07T13:24:24;100932.78;;;13.15;68.44